Latest Weather Observations for Ernabella/Pukatja

IDS60801

Issued at 11:02 am CST Monday 25 May 2015 (issued every 30 minutes, with the page automatically refreshed every 10 minutes)

About weather observations | Map of weather stations | Latest weather observations for SA | Other Formats
Station Details ID: 016097 Name: PUKATJA Lat: -26.26 Lon: 132.18 Height: 703.2 m
Data from the previous 72 hours. | See also: Recent months at Ernabella/Pukatja
Date/Time
CST
Temp
°C
App
Temp
°C
Dew
Point
Rel
Hum
%
Delta-T
°C
Wind Press
QNH
hPa
Press
MSL
hPa
Rain
since 9 am
mm
Dir
 
Spd
km/h
Gust
km/h
Spd
kts
Gust
kts
25/11:00am 14.8 11.2 5.1 52 4.7 N 13 19 7 10 1026.0 - 0.0
25/10:30am 14.8 11.2 5.1 52 4.7 N 13 19 7 10 1026.4 - 0.0
25/10:00am 14.7 11.1 3.2 46 5.4 N 11 19 6 10 1026.0 - 0.0
25/09:30am 14.7 11.9 2.9 45 5.5 N 7 11 4 6 1026.3 - 0.0
25/09:00am 14.6 11.7 2.8 45 5.5 N 7 11 4 6 1026.3 1024.8 0.0
25/08:30am 14.3 12.0 2.9 46 5.3 N 4 6 2 3 1026.3 - 0.0
25/08:00am 13.9 11.2 2.8 47 5.1 NNE 6 9 3 5 1026.0 - 0.0
25/07:30am 13.4 11.1 2.9 49 4.8 NE 4 7 2 4 1025.9 - 0.0
25/07:00am 12.9 10.6 2.7 50 4.7 ENE 4 7 2 4 1025.4 - 0.0
25/06:30am 12.6 9.7 2.5 50 4.6 NE 7 13 4 7 1025.1 - 0.0
25/06:00am 11.8 7.7 2.0 51 4.4 ENE 13 15 7 8 1024.6 1023.0 0.0
25/05:30am 12.3 8.1 1.9 49 4.7 E 13 15 7 8 1024.0 - 0.0
25/05:00am 12.3 8.9 1.6 48 4.8 E 9 13 5 7 1024.2 - 0.0
25/04:30am 11.9 9.0 1.3 48 4.7 NE 6 11 3 6 1024.2 - 0.0
25/04:00am 12.9 9.1 1.6 46 5.1 E 11 11 6 6 1024.4 - 0.0
25/03:30am 12.0 8.9 1.1 47 4.8 E 7 11 4 6 1024.2 - 0.0
25/03:00am 13.0 9.6 1.7 46 5.0 E 9 11 5 6 1024.4 1022.9 0.0
25/02:30am 13.5 11.8 1.8 45 5.3 CALM 0 0 0 0 1024.4 - 0.0
25/02:00am 13.6 10.2 1.6 44 5.4 ENE 9 13 5 7 1024.4 - 0.0
25/01:30am 14.0 11.9 2.0 44 5.5 E 2 9 1 5 1025.2 - 0.0
25/01:00am 14.1 12.4 2.0 44 5.5 CALM 0 0 0 0 1025.5 - 0.0
25/12:30am 14.2 10.5 2.5 45 5.4 E 11 15 6 8 1024.9 - 0.0
25/12:00am 14.4 11.1 2.3 44 5.5 E 9 11 5 6 1025.3 1023.8 0.0
 
Date/Time
CST
Temp
°C
App
Temp
°C
Dew
Point
Rel
Hum
%
Delta-T
°C
Wind Press
QNH
hPa
Press
MSL
hPa
Rain
since 9 am
mm
Dir
 
Spd
km/h
Gust
km/h
Spd
kts
Gust
kts
24/11:30pm 14.3 11.2 1.6 42 5.7 E 7 9 4 5 1025.7 - 0.0
24/11:00pm 14.2 11.1 1.5 42 5.7 NE 7 9 4 5 1025.5 - 0.0
24/10:30pm 14.1 11.3 2.0 44 5.5 ENE 6 7 3 4 1025.3 - 0.0
24/10:00pm 14.2 11.2 2.1 44 5.5 ENE 7 9 4 5 1025.1 - 0.0
24/09:30pm 14.7 11.6 1.6 41 5.9 E 7 9 4 5 1025.1 - 0.0
24/09:00pm 15.4 12.3 1.2 38 6.4 NNE 7 13 4 7 1025.1 1023.6 0.0
24/08:30pm 15.0 11.7 0.4 37 6.5 NE 7 9 4 5 1024.9 - 0.0
24/08:00pm 16.0 12.3 -2.5 28 7.8 E 7 11 4 6 1024.3 - 0.0
24/07:30pm 16.0 12.5 -2.5 28 7.8 NNE 6 7 3 4 1024.3 - 0.0
24/07:00pm 16.6 13.1 -2.5 27 8.1 N 6 7 3 4 1024.2 - 0.0
24/06:30pm 16.5 12.8 -2.5 27 8.0 NNE 7 11 4 6 1023.7 - 0.0
24/06:00pm 17.3 13.3 -2.4 26 8.4 NNE 9 13 5 7 1023.6 1022.0 0.0
24/05:30pm 17.7 13.7 -2.0 26 8.5 NNE 9 11 5 6 1023.4 - 0.0
24/05:00pm 18.2 15.7 -1.1 27 8.5 NW 2 7 1 4 1023.3 - 0.0
24/04:30pm 18.4 15.1 -0.9 27 8.6 WNW 6 9 3 5 1022.9 - 0.0
24/04:00pm 18.5 15.1 -0.8 27 8.6 W 7 9 4 5 1023.1 - 0.0
24/03:30pm 18.7 15.5 -0.7 27 8.7 NNW 6 13 3 7 1022.8 - 0.0
24/03:00pm 18.7 15.3 -0.7 27 8.7 NE 7 15 4 8 1022.9 1021.4 0.0
24/02:30pm 18.4 15.1 -0.9 27 8.6 NNE 6 13 3 7 1022.8 - 0.0
24/02:00pm 18.8 14.6 -0.6 27 8.7 NNW 11 17 6 9 1023.3 - 0.0
24/01:30pm 18.7 14.9 -0.7 27 8.7 N 9 19 5 10 1023.4 - 0.0
24/01:00pm 17.6 13.0 -1.1 28 8.2 N 13 20 7 11 1023.8 - 0.0
24/12:30pm 17.7 12.8 -0.5 29 8.1 N 15 22 8 12 1024.0 - 0.0
24/12:00pm 16.7 11.8 -0.5 31 7.6 NNE 15 22 8 12 1024.2 1022.7 0.0
24/11:30am 16.5 10.9 -0.2 32 7.4 NNE 19 28 10 15 1024.6 - 0.0
24/11:00am 15.0 9.1 -0.7 34 6.8 NNE 20 28 11 15 1024.9 - 0.0
24/10:30am 14.0 7.8 -0.4 37 6.2 NNE 22 30 12 16 1025.3 - 0.0
24/10:00am 13.2 7.5 -0.4 39 5.8 N 19 26 10 14 1025.5 - 0.0
24/09:30am 12.3 6.6 -0.6 41 5.5 NNE 19 28 10 15 1025.5 - 0.0
24/09:00am 12.0 6.7 -0.5 42 5.3 N 17 22 9 12 1025.4 1023.9 0.0
24/08:30am 11.9 7.4 -0.6 42 5.3 N 13 17 7 9 1025.1 - 0.0
24/08:00am 12.1 8.3 -0.7 41 5.4 NNE 9 15 5 8 1024.7 - 0.0
24/07:30am 11.7 8.3 -0.8 42 5.2 NE 7 9 4 5 1024.3 - 0.0
24/07:00am 11.9 7.4 -0.6 42 5.3 NNE 13 19 7 10 1024.2 - 0.0
24/06:30am 11.8 8.0 -0.7 42 5.3 NE 9 11 5 6 1023.8 - 0.0
24/06:00am 12.1 7.9 -1.1 40 5.5 NE 11 17 6 9 1023.5 1021.9 0.0
24/05:30am 12.3 8.1 -0.9 40 5.6 NNE 11 17 6 9 1023.6 - 0.0
24/05:00am 12.1 7.9 -1.1 40 5.5 NE 11 15 6 8 1023.4 - 0.0
24/04:30am 12.2 7.6 -1.0 40 5.5 NE 13 19 7 10 1023.5 - 0.0
24/04:00am 12.3 7.3 -1.2 39 5.6 NE 15 20 8 11 1023.5 - 0.0
24/03:30am 12.4 7.4 -1.5 38 5.8 NE 15 22 8 12 1023.5 - 0.0
24/03:00am 12.4 7.8 -0.8 40 5.5 NE 13 19 7 10 1023.4 1021.8 0.0
24/02:30am 12.1 6.8 -0.7 41 5.4 ENE 17 20 9 11 1023.1 - 0.0
24/02:00am 12.5 7.2 -0.7 40 5.6 NE 17 26 9 14 1023.4 - 0.0
24/01:30am 12.6 7.7 -0.6 40 5.6 NE 15 20 8 11 1023.8 - 0.0
24/01:00am 12.2 8.7 -1.3 39 5.6 ENE 7 9 4 5 1024.1 - 0.0
24/12:30am 12.4 8.9 -1.5 38 5.8 ENE 7 9 4 5 1024.2 - 0.0
24/12:00am 12.7 8.8 -1.2 38 5.8 ENE 9 13 5 7 1024.6 1023.0 0.0
 
Date/Time
CST
Temp
°C
App
Temp
°C
Dew
Point
Rel
Hum
%
Delta-T
°C
Wind Press
QNH
hPa
Press
MSL
hPa
Rain
since 9 am
mm
Dir
 
Spd
km/h
Gust
km/h
Spd
kts
Gust
kts
23/11:30pm 13.1 8.5 -1.2 37 6.0 ENE 13 15 7 8 1024.7 - 0.0
23/11:00pm 13.0 9.0 -2.1 35 6.2 NE 9 13 5 7 1024.8 - 0.0
23/10:30pm 13.1 9.1 -2.4 34 6.4 NE 9 13 5 7 1024.8 - 0.0
23/10:00pm 13.1 7.9 -2.8 33 6.5 ENE 15 17 8 9 1024.7 - 0.0
23/09:30pm 13.0 8.0 -4.1 30 6.7 ENE 13 15 7 8 1024.9 - 0.0
23/09:00pm 13.0 9.2 -4.1 30 6.7 NE 7 9 4 5 1025.1 1023.6 0.0
23/08:30pm 13.1 9.3 -4.1 30 6.8 NE 7 7 4 4 1025.0 - 0.0
23/08:00pm 13.5 9.6 -4.2 29 7.0 N 7 11 4 6 1024.9 - 0.0
23/07:30pm 14.0 10.1 -4.2 28 7.2 N 7 9 4 5 1024.8 - 0.0
23/07:00pm 14.6 10.7 -4.2 27 7.5 NE 7 7 4 4 1024.0 - 0.0
23/06:30pm 15.2 11.0 -4.2 26 7.8 N 9 13 5 7 1024.0 - 0.0
23/06:00pm 15.7 11.1 -4.2 25 8.0 NNE 11 15 6 8 1023.9 1022.4 0.0
23/05:30pm 16.1 11.5 -3.9 25 8.2 NNE 11 15 6 8 1023.7 - 0.0
23/05:00pm 16.5 11.5 -4.1 24 8.4 NNE 13 19 7 10 1023.7 - 0.0
23/04:30pm 16.8 11.5 -3.9 24 8.5 NNE 15 19 8 10 1023.5 - 0.0
23/04:00pm 17.2 12.3 -3.5 24 8.6 N 13 20 7 11 1023.4 - 0.0
23/03:30pm 16.6 10.8 -4.6 23 8.6 N 17 24 9 13 1023.7 - 0.0
23/03:00pm 17.4 11.7 -3.4 24 8.7 N 17 24 9 13 1023.8 1022.3 0.0
23/02:30pm 17.4 11.2 -2.8 25 8.6 N 20 30 11 16 1023.7 - 0.0
23/02:00pm 17.4 11.4 -3.4 24 8.7 NNE 19 30 10 16 1023.9 - 0.0
23/01:30pm 15.7 9.7 -2.7 28 7.7 NE 19 30 10 16 1024.4 - 0.0
23/01:00pm 15.8 9.9 -2.2 29 7.6 NNE 19 28 10 15 1025.1 - 0.0
23/12:30pm 15.1 9.1 -1.5 32 7.1 NNE 20 26 11 14 1025.7 - 0.0
23/12:00pm 14.7 8.8 -0.6 35 6.6 NNE 20 28 11 15 1026.0 1024.5 0.0
23/11:30am 13.5 7.6 -0.9 37 6.1 NNE 20 32 11 17 1026.9 - 0.0
23/11:00am 12.7 6.6 0.1 42 5.4 NNE 22 32 12 17 1027.0 - 0.0
23/10:30am 12.2 6.0 0.0 43 5.2 NNE 22 33 12 18 1027.1 - 0.0
23/10:00am 11.1 4.6 0.2 47 4.6 NNE 24 32 13 17 1027.1 - 0.0
23/09:30am 9.8 3.7 0.2 51 4.0 NNE 22 30 12 16 1027.4 - 0.0
23/09:00am 8.9 3.2 0.6 56 3.5 N 20 30 11 16 1027.4 1026.0 0.0
23/08:30am 8.0 2.9 0.5 59 3.1 NNE 17 24 9 13 1027.2 - 0.0
23/08:00am 5.3 1.2 -0.1 68 2.2 ENE 11 15 6 8 1026.9 - 0.0
23/07:30am 3.6 -0.6 -1.0 72 1.8 E 11 13 6 7 1026.3 - 0.0
23/07:00am 4.0 -0.6 -1.0 70 1.9 ESE 13 17 7 9 1025.9 - 0.0
23/06:30am 4.5 -0.5 -0.9 68 2.1 ESE 15 17 8 9 1026.2 - 0.0
23/06:00am 4.0 -0.2 -1.0 70 1.9 E 11 15 6 8 1026.4 1024.9 0.0
23/05:30am 2.9 -1.4 -2.0 70 1.8 E 11 13 6 7 1026.3 - 0.0
23/05:00am 4.3 -0.3 -1.3 67 2.1 ESE 13 15 7 8 1026.3 - 0.0
23/04:30am 4.5 -0.1 -1.3 66 2.2 ESE 13 15 7 8 1026.3 - 0.0
23/04:00am 3.9 -0.4 -1.7 67 2.1 E 11 13 6 7 1026.6 - 0.0
23/03:30am 4.4 -0.2 -1.4 66 2.2 E 13 15 7 8 1026.6 - 0.0
23/03:00am 4.3 -0.4 -1.7 65 2.3 E 13 15 7 8 1026.5 1025.0 0.0
23/02:30am 4.1 -0.2 -1.7 66 2.2 E 11 11 6 6 1026.7 - 0.0
23/02:00am 4.2 0.3 -1.8 65 2.3 E 9 11 5 6 1027.0 - 0.0
23/01:30am 3.8 -0.2 -2.2 65 2.2 E 9 11 5 6 1027.2 - 0.0
23/01:00am 5.1 0.4 -1.6 62 2.6 E 13 15 7 8 1027.3 - 0.0
23/12:30am 5.0 0.7 -1.7 62 2.6 E 11 15 6 8 1027.5 - 0.0
23/12:00am 5.5 0.5 -1.4 61 2.7 E 15 15 8 8 1027.5 1026.1 0.0
 
Date/Time
CST
Temp
°C
App
Temp
°C
Dew
Point
Rel
Hum
%
Delta-T
°C
Wind Press
QNH
hPa
Press
MSL
hPa
Rain
since 9 am
mm
Dir
 
Spd
km/h
Gust
km/h
Spd
kts
Gust
kts
22/11:30pm 4.1 0.1 -2.1 64 2.3 NE 9 11 5 6 1027.9 - 0.0
22/11:00pm 3.7 -0.1 -3.8 58 2.7 ENE 7 9 4 5 1028.0 - 0.0
22/10:30pm 4.0 -0.1 -3.0 60 2.6 NE 9 11 5 6 1028.0 - 0.0
22/10:00pm 4.2 -0.3 -3.3 58 2.7 ENE 11 13 6 7 1027.9 - 0.0
22/09:30pm 6.6 2.2 -2.3 53 3.4 E 11 11 6 6 1027.8 - 0.0
22/09:00pm 7.2 2.9 -1.7 53 3.5 E 11 13 6 7 1028.0 1026.5 0.0
22/08:30pm 7.2 3.2 -2.0 52 3.6 E 9 11 5 6 1027.8 - 0.0
22/08:00pm 7.9 3.6 -1.9 50 3.8 E 11 13 6 7 1027.1 - 0.0
22/07:30pm 8.9 4.2 -1.5 48 4.2 E 13 15 7 8 1026.9 - 0.0
22/07:00pm 9.4 5.5 -1.6 46 4.4 NE 9 13 5 7 1027.0 - 0.0
22/06:30pm 11.1 6.1 -1.3 42 5.1 E 15 17 8 9 1026.5 - 0.0
22/06:00pm 12.3 6.4 -2.0 37 5.8 E 19 24 10 13 1026.4 1024.9 0.0
22/05:30pm 13.4 6.9 -2.1 34 6.4 E 22 30 12 16 1026.2 - 0.0
22/05:00pm 13.8 7.7 -2.2 33 6.6 ENE 20 26 11 14 1026.5 - 0.0
22/04:30pm 15.0 8.9 -2.0 31 7.2 E 20 28 11 15 1026.8 - 0.0
22/04:00pm 13.9 8.0 -2.1 33 6.7 ENE 19 24 10 13 1026.7 - 0.0
22/03:30pm 14.5 8.6 -2.0 32 6.9 E 19 24 10 13 1027.0 - 0.0
22/03:00pm 14.4 9.0 -1.6 33 6.7 E 17 28 9 15 1026.8 1025.3 0.0
22/02:30pm 13.9 8.4 -2.1 33 6.7 E 17 24 9 13 1027.1 - 0.0
22/02:00pm 14.2 8.4 -1.4 34 6.6 NE 19 28 10 15 1027.1 - 0.0
22/01:30pm 14.5 9.2 -0.8 35 6.6 E 17 24 9 13 1027.1 - 0.0
22/01:00pm 13.2 7.2 -1.2 37 6.1 ENE 20 30 11 16 1027.8 - 0.0
22/12:30pm 12.4 6.7 -0.8 40 5.6 ENE 19 32 10 17 1028.2 - 0.0
22/12:00pm 12.7 7.5 -0.2 41 5.5 E 17 28 9 15 1028.9 1027.5 0.0
22/11:30am 11.7 6.4 -0.4 43 5.1 ENE 17 24 9 13 1029.7 - 0.0

Other Formats:

Comma delimited format used in spreadsheet applications
http://www.bom.gov.au/fwo/IDS60801/IDS60801.94474.axf

JavaScript Object Notation format (JSON) in row-major order
http://www.bom.gov.au/fwo/IDS60801/IDS60801.94474.json